Terminal Aerodrome Forecast
Issued by NWS

Home | Current Version | Previous Version | Text Only | Print | Product List | Glossary On
Versions: 1 2 3 4 5 6 7 8 9 10 11 12 13 14
000
FTUS45 KRIW 210100 AAA
TAFBPI
TAF AMD
KBPI 210138Z 2102/2124 20008KT P6SM VCSH BKN100
      TEMPO 2102/2104 VRB10G20KT
     FM210600 VRB04KT P6SM SCT100
     FM211900 28016G23KT P6SM SCT090 BKN150=

USA.gov is the U.S. government's official web portal to all federal, state and local government web resources and services.